Canas, Costa Rica
Current Conditions -  °F | °C
As of 12:00 PM on Friday 24 Oct 2014 (Local Time) from MRLB Reporting Station
Broken Clouds Broken Clouds  
Wind Chill: 86°   Ceiling: 25000
Heat Index: 95°   Visibility: 6mi
Dew Point: 75°   Wind: 8mph
Humidity: 70%   Direction: 290°WNW
Pressure: 29.84"   Gusts: NA
Location:  10.43°N, 85.1°W
Report Text: MRLB 241800Z 29007KT 9999 FEW030 BKN250 30/24 A2984
Loading
Personal Weather Stations






























Interactive Weather Map
Tropical Storm Tracking
New forecast layout! Learn more

10-Day Weather Forecast

Advertisements
Track Severe Weather on mobile